Time;durP1;ratioP1;P1;durP2;ratioP2;P2;SDS_P1;SDS_P2;PMS_P1;PMS_P2;Temp;Humidity;BMP_temperature;BMP_pressure;BME280_temperature;BME280_humidity;BME280_pressure;Samples;Min_cycle;Max_cycle;Signal;HPM_P1;HPM_P2
2023/07/15 00:02:01;;;;;;;3.40;3.10;;;25.30;86.60;;;;;;6255413;27;89035;-67
2023/07/15 00:05:04;;;;;;;4.63;3.30;;;25.30;86.60;;;;;;6251192;27;89029;-67
2023/07/15 00:08:08;;;;;;;3.42;3.00;;;25.30;86.50;;;;;;6252231;27;89766;-66
2023/07/15 00:11:14;;;;;;;3.25;2.92;;;25.30;86.50;;;;;;6250514;27;89314;-67
2023/07/15 00:14:19;;;;;;;3.30;3.00;;;25.30;86.50;;;;;;6246713;27;89438;-66
2023/07/15 00:17:21;;;;;;;4.70;3.28;;;25.30;86.30;;;;;;6246297;27;89020;-66
2023/07/15 00:20:23;;;;;;;3.78;3.20;;;25.30;86.30;;;;;;6253335;27;90423;-67
2023/07/15 00:23:27;;;;;;;3.17;2.80;;;25.30;86.30;;;;;;6247051;27;89220;-66
2023/07/15 00:26:31;;;;;;;4.63;3.47;;;25.30;86.30;;;;;;6251195;27;88003;-66
2023/07/15 00:29:33;;;;;;;5.25;3.30;;;25.30;86.40;;;;;;6252883;27;88766;-66
2023/07/15 00:32:35;;;;;;;3.42;2.90;;;25.30;86.40;;;;;;6254961;27;89129;-66
2023/07/15 00:35:37;;;;;;;3.92;3.47;;;25.30;86.50;;;;;;6254425;27;89057;-67
2023/07/15 00:38:42;;;;;;;4.00;3.40;;;25.30;87.50;;;;;;6247163;27;90111;-66
2023/07/15 00:41:44;;;;;;;4.07;3.20;;;25.30;86.60;;;;;;6250408;27;89101;-66
2023/07/15 00:44:45;;;;;;;3.50;3.15;;;25.20;86.40;;;;;;6246979;27;89387;-66
2023/07/15 00:47:58;;;;;;;3.83;3.08;;;25.20;86.30;;;;;;6253670;27;88909;-67
2023/07/15 00:51:00;;;;;;;3.10;2.80;;;25.20;86.20;;;;;;6252397;27;89124;-66
2023/07/15 00:54:02;;;;;;;4.30;3.10;;;25.20;86.20;;;;;;6248500;27;89163;-66
2023/07/15 00:57:06;;;;;;;3.30;3.00;;;25.20;86.20;;;;;;6254796;28;89393;-66
2023/07/15 01:00:10;;;;;;;4.10;2.80;;;25.20;86.20;;;;;;6254208;27;88424;-66
2023/07/15 01:03:13;;;;;;;3.70;3.30;;;25.20;86.20;;;;;;6257613;27;89271;-66
2023/07/15 01:06:15;;;;;;;4.47;3.50;;;25.20;86.30;;;;;;6252263;27;87854;-66
2023/07/15 01:09:17;;;;;;;4.57;3.50;;;25.20;86.30;;;;;;6252714;27;89929;-66
2023/07/15 01:12:19;;;;;;;3.60;3.30;;;25.20;86.20;;;;;;6251847;28;89073;-66
2023/07/15 01:15:21;;;;;;;4.05;3.10;;;25.20;86.10;;;;;;6249670;27;89386;-66
2023/07/15 01:18:25;;;;;;;3.33;2.88;;;25.20;86.20;;;;;;6254003;27;89446;-67
2023/07/15 01:21:28;;;;;;;3.38;3.08;;;25.20;86.10;;;;;;6243994;27;89122;-68
2023/07/15 01:24:32;;;;;;;3.90;3.10;;;25.20;85.90;;;;;;6251861;27;89640;-67
2023/07/15 01:27:35;;;;;;;4.47;3.00;;;25.10;85.80;;;;;;6249914;27;89103;-68
2023/07/15 01:30:37;;;;;;;3.30;3.00;;;25.20;86.00;;;;;;6254376;27;88593;-67
2023/07/15 01:33:59;;;;;;;3.70;3.30;;;25.10;85.90;;;;;;6254602;27;89090;-68
2023/07/15 01:37:02;;;;;;;3.70;3.25;;;25.10;85.90;;;;;;6255497;27;89450;-67
2023/07/15 01:40:09;;;;;;;3.40;3.10;;;25.10;86.00;;;;;;6245581;27;90290;-67
2023/07/15 01:43:11;;;;;;;4.07;3.20;;;25.10;85.90;;;;;;6252231;27;89458;-67
2023/07/15 01:46:13;;;;;;;3.95;3.08;;;25.10;85.80;;;;;;6250788;27;89412;-67
2023/07/15 01:49:15;;;;;;;3.60;3.30;;;25.10;85.90;;;;;;6246976;27;89079;-68
2023/07/15 01:52:17;;;;;;;4.63;3.33;;;25.10;85.70;;;;;;6256507;27;89624;-68
2023/07/15 01:55:20;;;;;;;4.60;3.50;;;25.10;85.90;;;;;;6256403;27;89290;-68
2023/07/15 01:58:22;;;;;;;5.68;3.60;;;25.10;85.80;;;;;;6258434;27;89004;-68
2023/07/15 02:01:24;;;;;;;3.95;3.40;;;25.10;85.70;;;;;;6255555;27;87230;-67
2023/07/15 02:04:26;;;;;;;4.20;3.40;;;25.10;85.70;;;;;;6245780;27;89354;-67
2023/07/15 02:07:28;;;;;;;3.67;3.38;;;25.10;85.70;;;;;;6253362;27;87951;-66
2023/07/15 02:10:32;;;;;;;4.40;3.75;;;25.00;85.60;;;;;;6249749;27;90149;-66
2023/07/15 02:13:34;;;;;;;3.67;3.30;;;25.00;85.70;;;;;;6258096;27;89096;-67
2023/07/15 02:16:36;;;;;;;4.57;3.30;;;25.00;85.70;;;;;;6254076;27;89456;-66
2023/07/15 02:19:38;;;;;;;3.70;3.40;;;25.10;85.70;;;;;;6248701;27;88996;-67
2023/07/15 02:22:41;;;;;;;3.70;3.28;;;25.10;85.80;;;;;;6242893;27;89134;-67
2023/07/15 02:25:44;;;;;;;3.70;3.33;;;25.00;85.70;;;;;;6257236;27;89283;-66
2023/07/15 02:28:46;;;;;;;4.32;3.42;;;25.00;85.80;;;;;;6257162;27;89127;-66
2023/07/15 02:31:49;;;;;;;4.45;3.65;;;25.00;85.90;;;;;;6252216;27;88422;-66
2023/07/15 02:34:51;;;;;;;4.85;3.50;;;25.00;86.70;;;;;;6258054;27;89013;-67
2023/07/15 02:37:54;;;;;;;4.68;3.80;;;25.00;85.90;;;;;;6258351;27;89395;-66
2023/07/15 02:40:58;;;;;;;3.67;3.35;;;25.00;85.90;;;;;;6255581;27;89940;-67
2023/07/15 02:44:00;;;;;;;4.32;3.40;;;25.00;85.90;;;;;;6251734;27;89196;-70
2023/07/15 02:47:03;;;;;;;4.80;3.70;;;24.90;85.80;;;;;;6253665;27;89116;-69
2023/07/15 02:50:07;;;;;;;3.88;3.58;;;25.00;85.90;;;;;;6253733;27;89075;-69
2023/07/15 02:53:10;;;;;;;4.25;3.58;;;24.90;85.80;;;;;;6254331;27;89156;-69
2023/07/15 02:56:13;;;;;;;3.83;3.53;;;25.00;85.80;;;;;;6254394;27;89015;-69
2023/07/15 02:59:15;;;;;;;3.83;3.05;;;25.00;85.70;;;;;;6255453;27;89136;-69
2023/07/15 03:02:17;;;;;;;4.60;4.00;;;24.90;85.60;;;;;;6256449;27;88418;-69
2023/07/15 03:09:16;;;;;;;4.35;3.60;;;25.00;85.60;;;;;;6253737;27;88647;-67
2023/07/15 03:12:19;;;;;;;4.18;3.58;;;25.00;85.60;;;;;;6262718;27;90346;-67
2023/07/15 03:15:21;;;;;;;5.47;3.83;;;24.90;85.60;;;;;;6256169;27;89328;-67
2023/07/15 03:18:25;;;;;;;4.20;3.70;;;24.90;85.70;;;;;;6244627;27;89010;-68
2023/07/15 03:21:27;;;;;;;5.15;3.60;;;24.90;85.70;;;;;;6246296;27;89164;-68
2023/07/15 03:24:30;;;;;;;4.18;3.70;;;24.90;85.70;;;;;;6240973;27;89039;-68
2023/07/15 03:27:34;;;;;;;6.18;4.10;;;24.90;86.60;;;;;;6245137;27;89076;-67
2023/07/15 03:30:36;;;;;;;4.18;3.78;;;24.90;85.80;;;;;;6254512;27;89151;-67
2023/07/15 03:33:38;;;;;;;4.32;3.92;;;24.90;85.70;;;;;;6265342;27;88302;-70
2023/07/15 03:36:40;;;;;;;4.22;3.83;;;24.90;85.80;;;;;;6251702;27;88279;-68
2023/07/15 03:39:42;;;;;;;5.63;4.45;;;24.90;85.90;;;;;;6242202;27;89097;-68
2023/07/15 03:42:45;;;;;;;4.53;4.13;;;24.90;85.90;;;;;;6239163;27;90201;-68
2023/07/15 03:45:47;;;;;;;6.53;4.10;;;24.90;85.90;;;;;;6252499;27;89058;-68
2023/07/15 03:52:46;;;;;;;5.15;3.70;;;24.90;86.00;;;;;;6252655;27;87345;-68
2023/07/15 03:55:48;;;;;;;5.63;3.92;;;24.90;86.10;;;;;;6252284;27;89605;-68
2023/07/15 03:58:51;;;;;;;4.72;4.20;;;24.90;86.00;;;;;;6243965;27;89075;-68
2023/07/15 04:01:53;;;;;;;4.10;3.42;;;24.90;85.90;;;;;;6254190;28;89135;-68
2023/07/15 04:04:55;;;;;;;4.78;4.07;;;24.80;85.90;;;;;;6247022;27;88858;-68
2023/07/15 04:07:57;;;;;;;6.70;4.00;;;24.80;85.70;;;;;;6248780;28;88963;-68
2023/07/15 04:10:59;;;;;;;4.55;3.38;;;24.80;85.80;;;;;;6261404;27;89407;-68
2023/07/15 04:14:03;;;;;;;4.95;3.63;;;24.80;85.70;;;;;;6245394;27;90075;-68
2023/07/15 04:17:05;;;;;;;4.68;3.70;;;24.80;85.90;;;;;;6246885;28;89034;-68
2023/07/15 04:20:13;;;;;;;5.85;3.75;;;24.80;86.00;;;;;;6249200;28;89129;-68
2023/07/15 04:23:15;;;;;;;6.60;3.70;;;24.80;85.90;;;;;;6238609;27;89268;-68
2023/07/15 04:26:21;;;;;;;6.90;4.10;;;24.80;86.00;;;;;;6252841;27;89430;-68
2023/07/15 04:29:24;;;;;;;6.35;4.20;;;24.80;86.10;;;;;;6256168;27;88260;-69
2023/07/15 04:32:26;;;;;;;3.90;3.60;;;24.80;86.10;;;;;;6255969;27;89155;-68
2023/07/15 04:35:28;;;;;;;4.85;3.78;;;24.80;86.20;;;;;;6243863;27;88423;-68
2023/07/15 04:38:30;;;;;;;4.35;3.95;;;24.80;86.20;;;;;;6253596;27;89045;-68
2023/07/15 04:41:33;;;;;;;5.55;3.97;;;24.80;86.20;;;;;;6249481;27;89681;-68
2023/07/15 04:44:37;;;;;;;3.50;3.10;;;24.80;86.20;;;;;;6244133;27;89532;-68
2023/07/15 04:47:39;;;;;;;4.25;3.80;;;24.80;86.30;;;;;;6254695;27;89120;-68
2023/07/15 04:50:41;;;;;;;5.80;3.53;;;24.80;86.30;;;;;;6268111;27;89033;-69
2023/07/15 04:53:43;;;;;;;4.95;3.78;;;24.80;86.40;;;;;;6247862;27;89540;-68
2023/07/15 04:56:45;;;;;;;5.38;3.65;;;24.80;86.30;;;;;;6245855;27;87727;-69
2023/07/15 04:59:49;;;;;;;3.70;3.40;;;24.80;86.40;;;;;;6252244;27;89175;-68
2023/07/15 05:02:51;;;;;;;4.40;3.97;;;24.90;86.40;;;;;;6254326;27;89115;-68
2023/07/15 05:05:53;;;;;;;4.53;3.80;;;24.90;86.60;;;;;;6254897;27;88286;-68
2023/07/15 05:08:55;;;;;;;5.25;4.07;;;24.90;86.70;;;;;;6250274;27;89047;-68
2023/07/15 05:11:58;;;;;;;7.43;4.15;;;24.90;86.70;;;;;;6253908;27;89401;-68
2023/07/15 05:15:01;;;;;;;5.88;4.00;;;24.90;86.90;;;;;;6247866;27;90015;-68
2023/07/15 05:18:04;;;;;;;4.15;3.75;;;24.90;86.90;;;;;;6251514;27;91206;-68
2023/07/15 05:21:06;;;;;;;5.20;3.88;;;25.00;87.20;;;;;;6256241;27;89099;-68
2023/07/15 05:24:08;;;;;;;4.80;3.60;;;24.90;87.40;;;;;;6254984;28;89201;-68
2023/07/15 05:27:10;;;;;;;5.25;3.42;;;25.00;87.60;;;;;;6255348;27;89034;-68
2023/07/15 05:30:14;;;;;;;6.03;3.97;;;25.00;87.70;;;;;;6257980;27;88740;-68
2023/07/15 05:33:16;;;;;;;4.60;3.63;;;25.00;87.80;;;;;;6258990;27;89075;-69
2023/07/15 05:36:17;;;;;;;4.38;3.97;;;25.00;88.10;;;;;;6252254;27;88325;-69
2023/07/15 05:39:20;;;;;;;5.45;4.13;;;25.00;88.10;;;;;;6258176;27;88717;-68
2023/07/15 05:42:22;;;;;;;4.43;3.80;;;25.00;88.30;;;;;;6260561;27;89192;-68
2023/07/15 05:45:25;;;;;;;7.10;3.75;;;25.00;88.50;;;;;;6256477;27;90357;-69
2023/07/15 05:48:27;;;;;;;4.55;4.00;;;25.00;88.80;;;;;;6256894;27;89115;-68
2023/07/15 05:51:29;;;;;;;4.68;3.53;;;24.90;89.00;;;;;;6256324;27;89298;-68
2023/07/15 05:54:31;;;;;;;3.95;3.50;;;24.90;89.10;;;;;;6256458;27;89040;-68
2023/07/15 05:57:33;;;;;;;4.38;3.60;;;24.90;89.50;;;;;;6259036;27;89273;-69
2023/07/15 06:00:37;;;;;;;5.07;4.07;;;24.90;89.70;;;;;;6253303;27;88821;-68
2023/07/15 06:03:44;;;;;;;7.13;4.00;;;24.90;90.00;;;;;;6256543;27;88301;-70
2023/07/15 06:06:46;;;;;;;10.20;3.55;;;24.90;90.10;;;;;;6256832;27;88444;-70
2023/07/15 06:09:51;;;;;;;6.85;4.05;;;24.90;90.70;;;;;;6255654;28;89438;-70
2023/07/15 06:12:53;;;;;;;5.22;3.53;;;24.90;92.00;;;;;;6257877;27;89375;-70
2023/07/15 06:15:56;;;;;;;5.70;3.80;;;24.90;91.80;;;;;;6257521;27;90333;-70
2023/07/15 06:18:58;;;;;;;4.18;3.78;;;25.00;91.60;;;;;;6254814;27;89089;-70
2023/07/15 06:22:00;;;;;;;4.05;3.67;;;25.00;91.30;;;;;;6253231;27;87956;-71
2023/07/15 06:25:02;;;;;;;5.82;3.80;;;25.00;91.60;;;;;;6254180;27;89153;-70
2023/07/15 06:28:05;;;;;;;4.85;3.88;;;25.00;91.50;;;;;;6255871;27;89506;-70
2023/07/15 06:31:08;;;;;;;4.50;3.60;;;25.00;91.80;;;;;;6255350;27;89533;-70
2023/07/15 06:34:10;;;;;;;4.95;3.70;;;25.00;91.80;;;;;;6265937;27;89260;-71
2023/07/15 06:37:12;;;;;;;3.97;3.50;;;25.00;91.90;;;;;;6258900;27;88324;-68
2023/07/15 06:40:16;;;;;;;5.65;3.63;;;25.00;92.30;;;;;;6253211;28;88992;-68
2023/07/15 06:43:18;;;;;;;3.67;3.35;;;25.00;92.40;;;;;;6255010;27;89034;-68
2023/07/15 06:46:24;;;;;;;4.97;3.40;;;25.00;91.90;;;;;;6245301;27;90071;-68
2023/07/15 06:49:27;;;;;;;6.18;3.85;;;25.00;91.90;;;;;;6259320;27;88019;-70
2023/07/15 06:52:29;;;;;;;6.88;4.35;;;24.90;92.60;;;;;;6251383;27;88962;-69
2023/07/15 06:55:31;;;;;;;5.13;3.78;;;24.90;94.00;;;;;;6250909;27;89386;-70
2023/07/15 06:58:33;;;;;;;5.00;3.83;;;24.90;95.30;;;;;;6254081;27;89952;-68
2023/07/15 07:01:36;;;;;;;4.50;3.60;;;24.90;94.50;;;;;;6253501;27;88971;-69
2023/07/15 07:04:38;;;;;;;3.95;3.50;;;24.90;94.10;;;;;;6250761;27;88017;-69
2023/07/15 07:07:40;;;;;;;6.85;3.63;;;24.90;93.50;;;;;;6254549;28;88245;-68
2023/07/15 07:10:42;;;;;;;5.93;3.65;;;24.90;94.10;;;;;;6253986;28;89267;-68
2023/07/15 07:13:44;;;;;;;4.45;3.80;;;25.00;93.90;;;;;;6244236;27;89383;-68
2023/07/15 07:16:47;;;;;;;4.95;4.10;;;25.00;93.70;;;;;;6257853;27;87989;-68
2023/07/15 07:19:49;;;;;;;6.57;4.10;;;25.00;93.70;;;;;;6255061;27;89369;-69
2023/07/15 07:22:51;;;;;;;4.93;4.13;;;25.00;93.60;;;;;;6250700;27;89156;-69
2023/07/15 07:25:54;;;;;;;6.07;4.10;;;25.00;93.50;;;;;;6259254;27;89068;-69
2023/07/15 07:28:55;;;;;;;5.30;4.40;;;25.00;93.50;;;;;;6259039;27;89407;-71
2023/07/15 07:31:59;;;;;;;4.82;4.38;;;25.10;93.40;;;;;;6254370;27;89048;-71
2023/07/15 07:35:01;;;;;;;7.10;4.97;;;25.00;93.30;;;;;;6246772;27;88071;-69
2023/07/15 07:38:03;;;;;;;5.78;4.63;;;25.00;93.30;;;;;;6255359;27;88594;-68
2023/07/15 07:41:06;;;;;;;6.07;5.05;;;25.00;93.30;;;;;;6257778;27;89137;-68
2023/07/15 07:44:08;;;;;;;5.57;5.00;;;25.00;93.20;;;;;;6259836;27;88986;-69
2023/07/15 07:47:12;;;;;;;6.28;4.90;;;25.00;93.20;;;;;;6253447;28;89954;-68
2023/07/15 07:50:14;;;;;;;6.18;4.82;;;25.10;93.20;;;;;;6243487;27;89185;-69
2023/07/15 07:53:16;;;;;;;5.88;4.90;;;25.10;93.20;;;;;;6261685;27;89070;-69
2023/07/15 07:56:17;;;;;;;5.55;4.72;;;25.10;93.20;;;;;;6255817;27;89050;-69
2023/07/15 07:59:19;;;;;;;5.70;4.32;;;25.10;93.10;;;;;;6256273;27;89048;-69
2023/07/15 08:02:23;;;;;;;7.65;4.80;;;25.10;93.00;;;;;;6257665;27;89402;-69
2023/07/15 08:05:25;;;;;;;6.88;4.72;;;25.10;92.90;;;;;;6268905;27;89435;-69
2023/07/15 08:08:30;;;;;;;8.00;4.97;;;25.10;92.90;;;;;;6256080;27;87211;-69
2023/07/15 08:11:32;;;;;;;5.57;5.07;;;25.10;92.90;;;;;;6257578;28;89038;-69
2023/07/15 08:14:34;;;;;;;6.05;4.65;;;25.10;92.80;;;;;;6255518;27;88009;-69
2023/07/15 08:17:37;;;;;;;7.75;4.80;;;25.10;92.80;;;;;;6242153;27;90267;-69
2023/07/15 08:20:41;;;;;;;4.72;4.32;;;25.10;92.80;;;;;;6256355;27;88600;-70
2023/07/15 08:23:43;;;;;;;4.78;4.38;;;25.10;92.80;;;;;;6269822;27;88304;-68
2023/07/15 08:26:45;;;;;;;5.43;4.63;;;25.10;92.80;;;;;;6256675;27;89367;-69
2023/07/15 08:29:48;;;;;;;6.03;4.50;;;25.10;92.70;;;;;;6255064;27;89145;-69
2023/07/15 08:32:51;;;;;;;5.25;4.57;;;25.10;92.70;;;;;;6255230;27;88761;-69
2023/07/15 08:35:53;;;;;;;6.82;4.78;;;25.10;92.70;;;;;;6256270;27;89204;-69
2023/07/15 08:38:55;;;;;;;5.45;4.60;;;25.10;92.70;;;;;;6258248;27;88345;-69
2023/07/15 08:42:01;;;;;;;5.32;4.47;;;25.10;92.80;;;;;;6256629;28;89083;-69
2023/07/15 08:45:04;;;;;;;5.05;4.53;;;25.10;92.90;;;;;;6254695;27;89454;-69
2023/07/15 08:48:09;;;;;;;6.53;5.00;;;25.10;92.90;;;;;;6252742;27;88950;-69
2023/07/15 08:51:11;;;;;;;5.03;4.55;;;25.10;92.80;;;;;;6245976;27;89178;-68
2023/07/15 08:54:14;;;;;;;6.38;4.75;;;25.20;92.90;;;;;;6251935;27;87966;-69
2023/07/15 08:57:18;;;;;;;5.97;5.00;;;25.10;92.70;;;;;;6247934;28;91554;-69
2023/07/15 09:00:20;;;;;;;4.80;4.40;;;25.10;92.60;;;;;;6248951;28;89411;-69
2023/07/15 09:03:24;;;;;;;4.93;4.35;;;25.10;92.60;;;;;;6257062;27;89963;-69
2023/07/15 09:06:26;;;;;;;4.85;4.45;;;25.10;92.60;;;;;;6242448;28;87976;-69
2023/07/15 09:09:32;;;;;;;4.78;4.30;;;25.20;92.70;;;;;;6256678;27;88295;-69
2023/07/15 09:12:33;;;;;;;4.72;4.20;;;25.10;92.60;;;;;;6251489;27;89095;-69
2023/07/15 09:15:36;;;;;;;4.97;4.47;;;25.10;92.60;;;;;;6253587;27;89059;-69
2023/07/15 09:18:42;;;;;;;4.45;4.05;;;25.10;92.60;;;;;;6251002;27;89948;-69
2023/07/15 09:21:52;;;;;;;4.85;4.32;;;25.10;92.60;;;;;;6247914;27;87918;-69
2023/07/15 09:25:03;;;;;;;4.93;4.43;;;25.10;92.60;;;;;;6242744;27;89121;-69
2023/07/15 09:28:09;;;;;;;6.40;4.50;;;25.10;92.70;;;;;;6254582;27;88334;-69
2023/07/15 09:31:11;;;;;;;4.82;4.43;;;25.20;92.80;;;;;;6242049;27;89459;-69
2023/07/15 09:34:15;;;;;;;5.72;4.65;;;25.20;92.80;;;;;;6253250;27;89096;-67
2023/07/15 09:37:28;;;;;;;5.53;4.53;;;25.10;93.10;;;;;;6245130;28;89248;-67
2023/07/15 09:40:41;;;;;;;5.47;4.22;;;25.20;93.80;;;;;;6254253;27;88269;-70
2023/07/15 09:43:48;;;;;;;4.80;4.25;;;25.20;94.00;;;;;;6253835;27;89192;-68
2023/07/15 09:46:50;;;;;;;6.65;4.47;;;25.20;94.20;;;;;;6248061;27;89002;-68
2023/07/15 09:49:54;;;;;;;6.40;4.60;;;25.20;94.90;;;;;;6250448;27;88983;-68
2023/07/15 09:52:58;;;;;;;5.80;4.57;;;25.20;95.20;;;;;;6240316;27;89243;-69
2023/07/15 09:56:02;;;;;;;5.05;4.22;;;25.30;94.80;;;;;;6250840;27;89008;-68
2023/07/15 09:59:08;;;;;;;4.90;4.50;;;25.30;94.30;;;;;;6254429;27;89234;-68
2023/07/15 10:02:25;;;;;;;5.18;4.68;;;25.20;94.00;;;;;;6250800;27;88941;-68
2023/07/15 10:05:29;;;;;;;4.63;4.20;;;25.20;93.80;;;;;;6253833;27;89108;-68
2023/07/15 10:08:32;;;;;;;6.65;4.40;;;25.20;93.70;;;;;;6255084;27;89190;-67
2023/07/15 10:11:35;;;;;;;7.47;4.80;;;25.20;93.70;;;;;;6254537;27;88637;-68
2023/07/15 10:14:38;;;;;;;14.32;5.30;;;25.20;94.00;;;;;;6255830;27;89528;-67
2023/07/15 10:17:40;;;;;;;8.23;4.63;;;25.20;94.00;;;;;;6248020;27;89404;-67
2023/07/15 10:20:47;;;;;;;5.05;4.25;;;25.20;94.00;;;;;;6249197;27;90002;-67
2023/07/15 10:23:49;;;;;;;5.03;4.30;;;25.20;93.90;;;;;;6247234;27;89572;-67
2023/07/15 10:26:54;;;;;;;4.53;4.10;;;25.20;93.80;;;;;;6250015;27;89408;-68
2023/07/15 10:30:18;;;;;;;7.13;4.35;;;25.20;93.80;;;;;;6255117;28;89229;-67
2023/07/15 10:33:26;;;;;;;5.88;4.63;;;25.30;93.80;;;;;;6258459;27;89111;-67
2023/07/15 10:36:47;;;;;;;5.45;4.30;;;25.20;93.60;;;;;;6249003;27;89105;-67
2023/07/15 10:39:49;;;;;;;6.20;4.50;;;25.20;93.60;;;;;;6256142;27;90380;-67
2023/07/15 10:43:07;;;;;;;4.70;4.07;;;25.30;93.70;;;;;;6256728;27;88063;-68
2023/07/15 10:46:10;;;;;;;6.43;4.45;;;25.30;93.60;;;;;;6255258;27;88928;-68
2023/07/15 10:49:12;;;;;;;5.13;4.05;;;25.30;93.60;;;;;;6256472;27;89429;-68
2023/07/15 10:52:18;;;;;;;5.18;4.03;;;25.30;93.60;;;;;;6251599;27;90175;-67
2023/07/15 10:55:20;;;;;;;4.80;4.40;;;25.20;93.60;;;;;;6248978;28;89182;-68
2023/07/15 10:58:22;;;;;;;5.93;4.43;;;25.20;93.50;;;;;;6256866;28;89075;-68
2023/07/15 11:01:24;;;;;;;5.57;4.20;;;25.30;93.70;;;;;;6253378;27;89108;-68
2023/07/15 11:04:26;;;;;;;4.57;4.05;;;25.20;93.70;;;;;;6258581;27;89038;-68
2023/07/15 11:07:35;;;;;;;5.38;4.03;;;25.20;93.70;;;;;;6255065;27;89435;-68
2023/07/15 11:10:37;;;;;;;5.70;4.22;;;25.30;93.90;;;;;;6255863;27;89132;-68
2023/07/15 11:13:41;;;;;;;4.28;3.88;;;25.20;93.90;;;;;;6256804;27;88417;-69
2023/07/15 11:16:44;;;;;;;4.88;4.32;;;25.30;93.80;;;;;;6258700;27;89059;-69
2023/07/15 11:19:46;;;;;;;5.38;4.10;;;25.30;93.90;;;;;;6269667;27;89025;-68
2023/07/15 11:22:50;;;;;;;4.72;3.90;;;25.30;94.10;;;;;;6245179;28;89927;-68
2023/07/15 11:25:52;;;;;;;4.45;3.85;;;25.30;94.20;;;;;;6248354;27;88032;-69
2023/07/15 11:28:54;;;;;;;6.35;4.28;;;25.30;94.30;;;;;;6256928;27;89309;-68
2023/07/15 11:31:59;;;;;;;4.38;3.97;;;25.30;94.30;;;;;;6257962;27;89219;-68
2023/07/15 11:35:11;;;;;;;4.78;3.72;;;25.30;94.70;;;;;;6260683;27;89505;-68
2023/07/15 11:38:16;;;;;;;5.80;4.10;;;25.30;95.70;;;;;;6260441;27;89142;-67
2023/07/15 11:41:18;;;;;;;4.55;3.80;;;25.30;96.40;;;;;;6258406;27;88320;-68
2023/07/15 11:44:23;;;;;;;6.28;4.32;;;25.30;96.30;;;;;;6248696;27;88282;-68
2023/07/15 11:47:25;;;;;;;4.45;3.80;;;25.30;96.30;;;;;;6253831;27;89775;-68
2023/07/15 11:50:28;;;;;;;5.63;4.00;;;25.30;96.30;;;;;;6255116;27;89146;-68
2023/07/15 11:53:33;;;;;;;4.43;4.03;;;25.30;96.10;;;;;;6256312;27;90107;-68
2023/07/15 11:56:37;;;;;;;5.38;3.83;;;25.30;95.80;;;;;;6249783;27;89074;-67
2023/07/15 11:59:40;;;;;;;6.20;4.10;;;25.30;95.70;;;;;;6268827;27;88433;-67
2023/07/15 12:02:42;;;;;;;5.00;4.00;;;25.30;95.60;;;;;;6255135;27;89395;-67
2023/07/15 12:05:45;;;;;;;4.88;3.83;;;25.40;95.60;;;;;;6249481;27;90937;-68
2023/07/15 12:09:02;;;;;;;4.13;3.70;;;25.30;95.80;;;;;;6254500;27;89225;-67
2023/07/15 12:12:04;;;;;;;4.60;3.63;;;25.40;96.00;;;;;;6253218;28;91053;-69
2023/07/15 12:15:07;;;;;;;4.72;3.70;;;25.40;96.30;;;;;;6258117;27;88357;-68
2023/07/15 12:18:09;;;;;;;8.57;4.40;;;25.40;97.90;;;;;;6249688;27;88959;-67
2023/07/15 12:21:11;;;;;;;8.02;4.22;;;25.40;98.00;;;;;;6257174;27;90011;-67
2023/07/15 12:24:14;;;;;;;8.10;3.80;;;25.40;98.00;;;;;;6243305;27;90116;-68
2023/07/15 12:31:14;;;;;;;8.98;4.40;;;25.40;97.70;;;;;;6253072;27;89565;-66
2023/07/15 12:34:16;;;;;;;6.55;4.18;;;25.40;97.60;;;;;;6258725;27;89178;-66
2023/07/15 12:37:19;;;;;;;9.02;4.30;;;25.40;97.80;;;;;;6257207;27;89342;-66
2023/07/15 12:40:22;;;;;;;9.10;4.53;;;25.40;97.40;;;;;;6261020;27;89357;-66
2023/07/15 12:43:24;;;;;;;5.72;4.30;;;25.40;97.60;;;;;;6256910;27;89496;-67
2023/07/15 12:46:26;;;;;;;7.07;4.03;;;25.40;97.60;;;;;;6260692;27;88143;-66
2023/07/15 12:49:28;;;;;;;11.07;4.43;;;25.40;97.70;;;;;;6257419;27;89399;-66
2023/07/15 12:52:30;;;;;;;7.75;4.03;;;25.40;97.70;;;;;;6252259;27;88412;-66
2023/07/15 12:55:34;;;;;;;8.27;4.28;;;25.40;97.60;;;;;;6248490;28;90193;-66
2023/07/15 12:58:36;;;;;;;4.93;3.67;;;25.40;97.60;;;;;;6244569;27;89068;-69
2023/07/15 13:01:38;;;;;;;7.18;4.10;;;25.40;97.50;;;;;;6251277;27;89396;-71
2023/07/15 13:04:40;;;;;;;6.75;3.95;;;25.40;97.50;;;;;;6255495;27;89277;-67
2023/07/15 13:07:42;;;;;;;8.75;4.07;;;25.50;97.50;;;;;;6242893;28;89293;-67
2023/07/15 13:10:45;;;;;;;5.57;3.70;;;25.50;97.10;;;;;;6252706;27;89059;-66
2023/07/15 13:13:47;;;;;;;5.90;3.58;;;25.50;96.80;;;;;;6261017;27;89172;-67
2023/07/15 13:16:49;;;;;;;6.05;3.97;;;25.50;96.80;;;;;;6247283;28;88514;-68
2023/07/15 13:19:51;;;;;;;5.88;3.70;;;25.40;96.70;;;;;;6265066;27;89018;-67
2023/07/15 13:22:53;;;;;;;4.35;3.72;;;25.40;96.60;;;;;;6251015;27;88743;-68
2023/07/15 13:25:57;;;;;;;5.72;3.67;;;25.50;96.60;;;;;;6245088;27;90024;-68
2023/07/15 13:28:58;;;;;;;4.38;3.83;;;25.40;96.50;;;;;;6257187;27;89485;-68
2023/07/15 13:32:00;;;;;;;4.13;3.50;;;25.50;96.50;;;;;;6252731;27;89011;-68
2023/07/15 13:35:03;;;;;;;5.60;3.85;;;25.50;96.40;;;;;;6255859;27;89055;-68
2023/07/15 13:38:04;;;;;;;5.22;3.70;;;25.50;96.40;;;;;;6251769;27;89145;-68
2023/07/15 13:41:08;;;;;;;6.35;3.90;;;25.50;96.50;;;;;;6246698;27;89090;-68
2023/07/15 13:44:10;;;;;;;4.65;3.80;;;25.50;96.70;;;;;;6260337;27;88965;-68
2023/07/15 13:47:12;;;;;;;4.95;4.25;;;25.50;96.80;;;;;;6265382;27;88253;-68
2023/07/15 13:50:14;;;;;;;5.15;3.83;;;25.50;97.00;;;;;;6260331;27;89439;-68
2023/07/15 13:53:16;;;;;;;7.90;4.00;;;25.50;97.10;;;;;;6257761;27;89000;-68
2023/07/15 13:56:19;;;;;;;4.50;3.83;;;25.50;97.10;;;;;;6253213;27;90020;-68
2023/07/15 13:59:22;;;;;;;7.03;4.13;;;25.50;97.30;;;;;;6265418;27;89135;-68
2023/07/15 14:02:24;;;;;;;4.47;3.70;;;25.50;97.40;;;;;;6251072;27;89172;-68
2023/07/15 14:05:26;;;;;;;7.72;4.13;;;25.50;97.20;;;;;;6259524;27;89226;-68
2023/07/15 14:08:28;;;;;;;7.57;3.85;;;25.50;97.20;;;;;;6258844;27;89265;-68
2023/07/15 14:11:31;;;;;;;5.13;3.50;;;25.50;97.30;;;;;;6259927;27;89575;-68
2023/07/15 14:14:33;;;;;;;5.28;3.53;;;25.50;97.10;;;;;;6248451;27;89085;-68
2023/07/15 14:17:35;;;;;;;8.90;3.80;;;25.50;97.00;;;;;;6259911;27;88292;-68
2023/07/15 14:20:37;;;;;;;6.18;3.88;;;25.50;97.00;;;;;;6259742;27;89059;-68
2023/07/15 14:23:39;;;;;;;6.32;3.70;;;25.50;97.00;;;;;;6258883;27;89083;-68
2023/07/15 14:26:42;;;;;;;4.35;3.67;;;25.50;97.10;;;;;;6261747;27;90035;-68
2023/07/15 14:29:45;;;;;;;6.53;3.92;;;25.50;97.10;;;;;;6269647;27;89082;-68
2023/07/15 14:32:47;;;;;;;6.47;3.97;;;25.50;97.10;;;;;;6258090;27;88773;-68
2023/07/15 14:35:49;;;;;;;5.18;3.45;;;25.50;97.00;;;;;;6268100;27;89065;-68
2023/07/15 14:38:52;;;;;;;4.07;3.65;;;25.50;96.90;;;;;;6268270;27;89062;-68
2023/07/15 14:41:55;;;;;;;4.18;3.60;;;25.50;96.90;;;;;;6270345;27;89029;-68
2023/07/15 14:44:58;;;;;;;5.50;3.42;;;25.50;96.80;;;;;;6258614;27;89117;-68
2023/07/15 14:48:00;;;;;;;5.55;3.70;;;25.60;96.80;;;;;;6247500;27;88585;-68
2023/07/15 14:51:02;;;;;;;4.68;3.50;;;25.60;96.70;;;;;;6281050;27;89120;-68
2023/07/15 14:54:04;;;;;;;7.22;4.00;;;25.50;96.60;;;;;;6248152;27;89327;-68
2023/07/15 14:57:07;;;;;;;3.78;3.40;;;25.50;96.50;;;;;;6251874;28;90281;-68
2023/07/15 15:00:11;;;;;;;3.92;3.30;;;25.60;96.80;;;;;;6246303;27;89143;-68
2023/07/15 15:03:15;;;;;;;4.47;3.28;;;25.50;96.40;;;;;;6253320;27;89282;-68
2023/07/15 15:06:17;;;;;;;4.40;3.20;;;25.50;96.50;;;;;;6255771;27;88989;-68
2023/07/15 15:09:19;;;;;;;4.72;3.53;;;25.50;96.40;;;;;;6254912;27;88270;-69
2023/07/15 15:12:23;;;;;;;3.92;3.53;;;25.60;96.40;;;;;;6265808;27;88448;-68
2023/07/15 15:15:25;;;;;;;4.97;3.30;;;25.50;96.50;;;;;;6255295;27;89171;-68
2023/07/15 15:18:27;;;;;;;3.90;3.50;;;25.50;96.50;;;;;;6262689;27;88258;-69
2023/07/15 15:21:29;;;;;;;4.97;3.58;;;25.50;96.30;;;;;;6258502;27;89278;-68
2023/07/15 15:24:31;;;;;;;4.22;3.28;;;25.50;96.30;;;;;;6259517;27;88446;-68
2023/07/15 15:27:34;;;;;;;4.00;3.03;;;25.60;96.30;;;;;;6252049;27;88836;-68
2023/07/15 15:30:36;;;;;;;3.90;3.47;;;25.60;96.20;;;;;;6257636;27;88011;-68
2023/07/15 15:33:38;;;;;;;4.38;3.40;;;25.60;96.20;;;;;;6263861;27;89049;-68
2023/07/15 15:36:40;;;;;;;3.85;2.97;;;25.50;96.10;;;;;;6260770;27;88965;-68
2023/07/15 15:39:42;;;;;;;4.05;3.30;;;25.60;96.10;;;;;;6266849;27;89029;-68
2023/07/15 15:42:45;;;;;;;3.42;3.10;;;25.60;96.00;;;;;;6242514;28;88864;-68
2023/07/15 15:45:47;;;;;;;3.38;3.08;;;25.60;95.90;;;;;;6255881;27;89031;-68
2023/07/15 15:48:49;;;;;;;5.03;3.30;;;25.60;95.90;;;;;;6249271;28;88653;-67
2023/07/15 15:51:51;;;;;;;4.15;3.28;;;25.60;95.90;;;;;;6251679;27;89086;-68
2023/07/15 15:54:56;;;;;;;3.72;3.20;;;25.60;96.00;;;;;;6249895;27;89396;-68
2023/07/15 15:57:59;;;;;;;3.70;3.30;;;25.60;96.00;;;;;;6256588;27;90113;-68
2023/07/15 16:01:01;;;;;;;3.45;3.15;;;25.60;95.90;;;;;;6270166;27;87971;-68
2023/07/15 16:04:04;;;;;;;3.50;3.20;;;25.60;95.90;;;;;;6255968;27;89038;-66